Погода Нова-Игуасуна 2 недели

Рио-де-Жанейро, Бразилия

20 июня-02 июля
  • 20июня
    Сегодня
    +18°
    +32°
    Ясно и безоблачно
    ВремяПогодаТемператураВлажностьДавлениеВетер, м/сВероятность осадков
    00:00Ясно и безоблачно+22°C70 %750 мм0.2 м/с5 %
    03:00Ясно и безоблачно+19°C75 %749 мм0.5 м/с5 %
    06:00Ясно и безоблачно+18°C86 %750 мм1.5 м/с5 %
    09:00Ясно и безоблачно+25°C63 %751 мм1.1 м/с5 %
    12:00Ясно и безоблачно+31°C42 %750 мм2.6 м/с5 %
    15:00Ясно и безоблачно+28°C34 %749 мм2.4 м/с5 %
    18:00Ясно и безоблачно+24°C66 %750 мм2.0 м/с5 %
    21:00Ясно и безоблачно+23°C69 %751 мм1.3 м/с5 %
  • 21июня
    Пятница
    +19°
    +30°
    Ясно и безоблачно
    ВремяПогодаТемператураВлажностьДавлениеВетер, м/сВероятность осадков
    00:00Ясно и безоблачно+23°C76 %751 мм0.7 м/с5 %
    03:00Ясно и безоблачно+20°C84 %750 мм0.9 м/с5 %
    06:00Ясно и безоблачно+19°C82 %750 мм1.1 м/с5 %
    09:00Ясно и безоблачно+25°C62 %751 мм0.6 м/с5 %
    12:00Ясно и безоблачно+30°C44 %751 мм2.1 м/с5 %
    15:00Ясно и безоблачно+27°C45 %749 мм3.1 м/с5 %
    18:00Ясно и безоблачно+23°C71 %750 мм2.1 м/с5 %
    21:00Ясно и безоблачно+23°C89 %750 мм1.5 м/с5 %
  • 22июня
    Суббота
    +17°
    +31°
    Облачно с прояснениями
    ВремяПогодаТемператураВлажностьДавлениеВетер, м/сВероятность осадков
    00:00Ясно и безоблачно+21°C91 %750 мм0.7 м/с5 %
    03:00Практически безоблачно+21°C91 %750 мм0.2 м/с5 %
    06:00Ясно и безоблачно+20°C92 %750 мм0.4 м/с5 %
    09:00Ясно и безоблачно+25°C75 %751 мм1.2 м/с5 %
    12:00Облачно с прояснениями+31°C49 %750 мм3.4 м/с5 %
    15:00Облачно с прояснениями+29°C42 %748 мм3.3 м/с5 %
    18:00Облачно с прояснениями+24°C64 %748 мм2.2 м/с5 %
    21:00Небольшая облачность+24°C75 %749 мм0.7 м/с5 %
  • 23июня
    Воскресенье
    +19°
    +33°
    Ясно и безоблачно
    ВремяПогодаТемператураВлажностьДавлениеВетер, м/сВероятность осадков
    00:00Облачно с прояснениями+22°C85 %749 мм0.6 м/с5 %
    03:00Практически безоблачно+19°C84 %748 мм0.8 м/с5 %
    06:00Небольшая облачность+18°C88 %748 мм1.5 м/с5 %
    09:00Ясно и безоблачно+25°C60 %749 мм1.9 м/с5 %
    12:00Ясно и безоблачно+33°C41 %748 мм3.7 м/с5 %
    15:00Ясно и безоблачно+31°C39 %747 мм3.8 м/с5 %
    18:00Ясно и безоблачно+27°C60 %747 мм2.0 м/с5 %
    21:00Ясно и безоблачно+25°C69 %748 мм0.4 м/с5 %
Мы используем cookies
Соглашаюсь